Time;durP1;ratioP1;P1;durP2;ratioP2;P2;SDS_P1;SDS_P2;PMS_P1;PMS_P2;Temp;Humidity;BMP_temperature;BMP_pressure;BME280_temperature;BME280_humidity;BME280_pressure;Samples;Min_cycle;Max_cycle;Signal;HPM_P1;HPM_P2
2023/09/25 00:00:38;;;;;;;15.07;3.47;;;;;;;13.03;100.00;99858.69;5039393;28;20035;-78
2023/09/25 00:03:04;;;;;;;13.45;2.80;;;;;;;12.98;100.00;99853.09;5056904;28;20094;-78
2023/09/25 00:05:30;;;;;;;16.23;3.45;;;;;;;12.83;100.00;99861.44;5055732;28;20421;-77
2023/09/25 00:07:56;;;;;;;17.02;4.05;;;;;;;12.74;100.00;99868.97;5038879;28;20039;-78
2023/09/25 00:10:22;;;;;;;18.20;3.00;;;;;;;12.68;100.00;99867.13;5022917;28;20040;-77
2023/09/25 00:12:48;;;;;;;11.40;3.00;;;;;;;12.57;100.00;99866.91;5055641;28;20067;-77
2023/09/25 00:15:20;;;;;;;19.25;3.08;;;;;;;12.52;100.00;99864.88;5039097;28;20060;-77
2023/09/25 00:17:49;;;;;;;16.88;4.13;;;;;;;12.49;100.00;99870.66;5024686;28;20094;-78
2023/09/25 00:20:21;;;;;;;14.65;2.78;;;;;;;12.44;100.00;99881.28;5037448;28;20490;-77
2023/09/25 00:22:46;;;;;;;17.13;3.25;;;;;;;12.45;100.00;99872.13;5039744;28;20062;-78
2023/09/25 00:25:15;;;;;;;15.23;2.60;;;;;;;12.52;100.00;99868.41;5071940;28;20090;-77
2023/09/25 00:27:41;;;;;;;10.80;2.33;;;;;;;12.66;100.00;99881.84;5039253;28;20463;-78
2023/09/25 00:30:08;;;;;;;18.60;4.22;;;;;;;12.72;100.00;99876.44;5039153;28;20481;-77
2023/09/25 00:32:40;;;;;;;21.85;5.50;;;;;;;12.79;100.00;99887.22;5056822;28;20051;-78
2023/09/25 00:35:09;;;;;;;18.42;2.63;;;;;;;12.87;100.00;99883.47;5038806;28;20506;-77
2023/09/25 00:37:35;;;;;;;16.25;2.97;;;;;;;12.89;100.00;99893.00;5055743;28;20391;-77
2023/09/25 00:40:11;;;;;;;18.60;3.08;;;;;;;12.89;100.00;99897.56;5055777;28;20035;-77
2023/09/25 00:42:39;;;;;;;11.90;2.63;;;;;;;12.81;100.00;99900.47;5072336;28;20020;-78
2023/09/25 00:45:06;;;;;;;11.38;2.30;;;;;;;12.74;100.00;99912.13;5071747;28;20050;-77
2023/09/25 00:47:32;;;;;;;12.90;2.47;;;;;;;12.80;100.00;99909.63;5073007;28;20476;-77
2023/09/25 00:49:57;;;;;;;16.42;2.80;;;;;;;12.86;100.00;99906.91;5055544;28;20040;-77
2023/09/25 00:52:23;;;;;;;19.52;4.63;;;;;;;12.91;100.00;99908.97;5038981;28;20033;-78
2023/09/25 00:54:50;;;;;;;16.45;2.80;;;;;;;12.84;100.00;99908.16;5055640;28;20083;-77
2023/09/25 00:57:15;;;;;;;20.00;3.30;;;;;;;12.67;100.00;99924.78;5055081;28;20475;-77
2023/09/25 00:59:41;;;;;;;19.98;3.67;;;;;;;12.70;100.00;99927.09;5055509;28;20055;-77
2023/09/25 01:02:07;;;;;;;14.98;2.65;;;;;;;12.77;100.00;99921.66;5054989;28;20033;-77
2023/09/25 01:04:33;;;;;;;24.00;4.82;;;;;;;12.82;100.00;99919.16;5038871;28;20036;-77
2023/09/25 01:07:00;;;;;;;17.25;3.70;;;;;;;12.91;100.00;99919.75;5038739;28;20039;-77
2023/09/25 01:09:26;;;;;;;16.88;3.45;;;;;;;13.03;100.00;99920.75;5054829;28;20025;-78
2023/09/25 01:11:54;;;;;;;21.52;3.47;;;;;;;12.99;100.00;99919.53;5055600;28;20046;-77
2023/09/25 01:14:20;;;;;;;17.35;3.50;;;;;;;13.00;100.00;99918.50;5054840;28;20028;-77
2023/09/25 01:16:45;;;;;;;26.02;3.38;;;;;;;13.06;100.00;99925.72;5038393;28;20033;-77
2023/09/25 01:19:13;;;;;;;14.82;3.00;;;;;;;13.24;100.00;99925.06;5038693;28;20082;-78
2023/09/25 01:21:44;;;;;;;17.75;3.03;;;;;;;13.39;100.00;99943.72;5058611;28;20029;-78
2023/09/25 01:24:10;;;;;;;21.08;4.35;;;;;;;13.41;100.00;99930.81;5042260;28;20487;-77
2023/09/25 01:26:38;;;;;;;12.50;2.55;;;;;;;13.38;100.00;99944.75;5058786;28;20039;-77
2023/09/25 01:29:03;;;;;;;21.17;3.67;;;;;;;13.37;100.00;99949.34;5042136;28;20124;-78
2023/09/25 01:31:29;;;;;;;13.35;2.63;;;;;;;13.49;100.00;99956.75;5058477;28;20115;-77
2023/09/25 01:33:57;;;;;;;18.58;3.30;;;;;;;13.51;100.00;99963.59;5058382;28;20041;-78
2023/09/25 01:36:23;;;;;;;14.65;3.10;;;;;;;13.52;100.00;99962.56;5042179;28;20441;-77
2023/09/25 01:38:52;;;;;;;10.05;2.85;;;;;;;13.52;100.00;99962.56;5042008;28;20028;-77
2023/09/25 01:41:18;;;;;;;13.20;2.60;;;;;;;13.54;100.00;99944.25;5058678;28;20029;-78
2023/09/25 01:43:44;;;;;;;19.05;3.53;;;;;;;13.64;100.00;99960.84;5042103;28;20063;-78
2023/09/25 01:46:12;;;;;;;17.08;2.72;;;;;;;13.68;100.00;99949.59;5075138;28;20094;-78
2023/09/25 01:48:38;;;;;;;17.45;3.25;;;;;;;13.59;100.00;99957.94;5041558;28;20028;-78
2023/09/25 01:51:10;;;;;;;17.77;3.22;;;;;;;13.63;100.00;99955.66;5041672;28;20446;-77
2023/09/25 01:53:36;;;;;;;16.70;3.60;;;;;;;13.65;100.00;99948.16;5041745;28;20021;-77
2023/09/25 01:56:12;;;;;;;16.15;2.97;;;;;;;13.50;100.00;99961.13;5041575;28;20032;-77
2023/09/25 01:58:42;;;;;;;13.23;2.60;;;;;;;13.52;100.00;99957.19;5058230;28;20039;-77
2023/09/25 02:01:10;;;;;;;17.80;3.95;;;;;;;13.56;100.00;99957.56;5058497;28;20036;-78
2023/09/25 02:03:36;;;;;;;12.93;2.88;;;;;;;13.63;100.00;99961.91;5041340;28;20032;-78
2023/09/25 02:06:03;;;;;;;19.92;3.13;;;;;;;13.72;100.00;99969.75;5057819;28;20478;-77
2023/09/25 02:08:29;;;;;;;18.67;3.28;;;;;;;13.80;100.00;99961.38;5057924;28;20048;-78
2023/09/25 02:10:58;;;;;;;14.15;3.00;;;;;;;13.82;100.00;99972.81;5057848;28;20028;-77
2023/09/25 02:13:26;;;;;;;13.85;3.08;;;;;;;13.83;100.00;99977.16;5058248;28;20067;-77
2023/09/25 02:15:52;;;;;;;15.73;2.75;;;;;;;13.80;100.00;99983.00;5040979;28;20044;-78
2023/09/25 02:18:17;;;;;;;12.75;2.85;;;;;;;13.80;100.00;99975.72;5058023;28;20525;-77
2023/09/25 02:20:43;;;;;;;11.73;2.85;;;;;;;13.72;100.00;99986.78;5041253;28;20046;-78
2023/09/25 02:23:09;;;;;;;14.15;3.13;;;;;;;13.72;100.00;99984.06;5057678;28;20050;-78
2023/09/25 02:25:34;;;;;;;14.07;2.78;;;;;;;13.71;100.00;99965.41;5041276;28;20352;-77
2023/09/25 02:28:03;;;;;;;11.52;2.45;;;;;;;13.60;100.00;99992.03;5041066;28;20100;-77
2023/09/25 02:30:31;;;;;;;15.23;2.80;;;;;;;13.45;100.00;99988.78;5073886;28;20420;-78
2023/09/25 02:32:59;;;;;;;12.30;2.40;;;;;;;13.38;100.00;99996.88;5041292;28;20032;-78
2023/09/25 02:35:25;;;;;;;13.10;3.33;;;;;;;13.41;100.00;99984.81;5057692;28;20020;-77
2023/09/25 02:37:50;;;;;;;10.40;2.15;;;;;;;13.29;100.00;100002.75;5057147;28;20399;-79
2023/09/25 02:40:16;;;;;;;12.98;2.58;;;;;;;13.13;100.00;100001.31;5057159;28;20086;-78
2023/09/25 02:42:42;;;;;;;15.93;2.70;;;;;;;13.03;100.00;99992.81;5040829;28;20483;-78
2023/09/25 02:45:08;;;;;;;19.67;3.10;;;;;;;12.99;100.00;100003.16;5057408;28;20109;-78
2023/09/25 02:47:34;;;;;;;13.32;2.33;;;;;;;13.03;100.00;100006.31;5056912;28;20467;-78
2023/09/25 02:50:01;;;;;;;17.95;3.35;;;;;;;13.09;100.00;100014.38;5040796;28;20033;-77
2023/09/25 02:52:28;;;;;;;17.88;3.88;;;;;;;13.17;100.00;100014.16;5057341;28;20060;-77
2023/09/25 02:54:56;;;;;;;10.15;2.63;;;;;;;13.25;100.00;100014.97;5073182;28;20028;-78
2023/09/25 02:57:23;;;;;;;19.42;3.13;;;;;;;13.39;100.00;100022.03;5040030;28;20502;-78
2023/09/25 02:59:51;;;;;;;15.32;2.67;;;;;;;13.44;100.00;100024.91;5040759;28;20515;-78
2023/09/25 03:02:18;;;;;;;13.77;2.83;;;;;;;13.45;100.00;100021.19;5040755;28;20040;-78
2023/09/25 03:04:44;;;;;;;16.08;2.67;;;;;;;13.54;100.00;100022.59;5040650;28;20186;-77
2023/09/25 03:07:10;;;;;;;10.48;2.30;;;;;;;13.63;100.00;100032.13;5040409;28;20063;-77
2023/09/25 03:09:35;;;;;;;7.07;1.85;;;;;;;13.52;100.00;100032.81;5056618;28;20383;-77
2023/09/25 03:12:01;;;;;;;8.88;1.77;;;;;;;13.18;100.00;100032.03;5056349;28;20036;-78
2023/09/25 03:14:27;;;;;;;6.72;1.50;;;;;;;13.07;100.00;100026.41;5039937;28;20471;-77
2023/09/25 03:16:53;;;;;;;10.95;3.20;;;;;;;13.08;100.00;100037.00;5072388;28;20031;-77
2023/09/25 03:19:19;;;;;;;11.40;2.53;;;;;;;13.20;100.00;100038.03;5040077;28;20033;-78
2023/09/25 03:21:44;;;;;;;9.95;1.90;;;;;;;13.24;100.00;100041.13;5040191;28;20024;-77
2023/09/25 03:24:10;;;;;;;12.07;1.67;;;;;;;13.23;100.00;100041.34;5039872;28;20119;-78
2023/09/25 03:26:37;;;;;;;4.03;1.65;;;;;;;13.27;100.00;100042.63;5040158;28;20040;-77
2023/09/25 03:29:06;;;;;;;7.13;1.50;;;;;;;13.37;100.00;100049.25;5056357;28;20037;-78
2023/09/25 03:31:33;;;;;;;11.57;2.20;;;;;;;13.33;100.00;100048.00;5040278;28;20039;-78
2023/09/25 03:33:59;;;;;;;9.48;1.85;;;;;;;13.27;100.00;100061.53;5056206;28;20029;-77
2023/09/25 03:36:26;;;;;;;11.30;2.28;;;;;;;13.16;100.00;100057.56;5056134;28;20489;-78
2023/09/25 03:38:55;;;;;;;13.93;3.63;;;;;;;13.14;100.00;100056.94;5040219;28;20037;-77
2023/09/25 03:41:21;;;;;;;10.43;2.53;;;;;;;13.20;100.00;100065.03;5056021;28;20379;-78
2023/09/25 03:43:46;;;;;;;8.93;2.40;;;;;;;13.20;100.00;100061.47;5054941;28;20029;-79
2023/09/25 03:46:12;;;;;;;13.13;3.85;;;;;;;12.87;100.00;100064.22;5039201;28;20035;-78
2023/09/25 03:48:37;;;;;;;17.73;2.13;;;;;;;12.70;100.00;100072.75;5056124;28;20037;-78
2023/09/25 03:51:03;;;;;;;11.55;2.38;;;;;;;12.64;100.00;100083.50;5055692;28;20455;-80
2023/09/25 03:53:29;;;;;;;19.60;3.58;;;;;;;12.55;100.00;100077.47;5039587;28;20029;-78
2023/09/25 03:55:57;;;;;;;7.25;1.88;;;;;;;12.49;100.00;100083.69;5040138;28;20116;-78
2023/09/25 03:58:25;;;;;;;16.85;2.90;;;;;;;12.52;100.00;100091.38;5039612;28;20127;-77
2023/09/25 04:00:52;;;;;;;19.25;2.50;;;;;;;12.53;100.00;100087.63;5039686;28;20036;-77
2023/09/25 04:03:18;;;;;;;13.68;2.42;;;;;;;12.46;100.00;100089.47;5055828;28;20059;-78
2023/09/25 04:05:46;;;;;;;12.95;2.85;;;;;;;12.46;100.00;100108.34;5039433;28;20423;-78
2023/09/25 04:08:11;;;;;;;12.43;2.50;;;;;;;12.59;100.00;100100.28;5039504;28;20123;-78
2023/09/25 04:10:37;;;;;;;15.48;2.20;;;;;;;12.71;100.00;100100.53;5039209;28;20131;-78
2023/09/25 04:13:07;;;;;;;15.68;4.07;;;;;;;12.73;100.00;100106.56;5055980;28;20029;-77
2023/09/25 04:15:36;;;;;;;15.18;2.55;;;;;;;12.70;100.00;100109.66;5072403;28;20033;-78
2023/09/25 04:18:03;;;;;;;17.98;3.08;;;;;;;12.60;100.00;100107.38;5039627;28;20040;-77
2023/09/25 04:20:31;;;;;;;13.75;2.60;;;;;;;12.59;100.00;100108.38;5055641;28;20041;-78
2023/09/25 04:22:59;;;;;;;19.30;2.55;;;;;;;12.59;100.00;100108.38;5072179;28;20029;-77
2023/09/25 04:25:27;;;;;;;20.80;2.92;;;;;;;12.52;100.00;100121.03;5039456;28;20028;-78
2023/09/25 04:27:54;;;;;;;10.88;2.15;;;;;;;12.51;100.00;100122.88;5055948;28;20044;-78
2023/09/25 04:30:21;;;;;;;18.73;3.13;;;;;;;12.59;100.00;100121.03;5055646;28;20032;-78
2023/09/25 04:32:48;;;;;;;13.10;2.40;;;;;;;12.54;100.00;100129.75;5039220;28;20089;-78
2023/09/25 04:35:15;;;;;;;15.07;2.85;;;;;;;12.49;100.00;100137.59;5055402;28;20031;-77
2023/09/25 04:37:41;;;;;;;13.35;2.60;;;;;;;12.52;100.00;100138.06;5039053;28;20479;-78
2023/09/25 04:42:46;;;;;;;15.45;2.33;;;;;;;12.56;100.00;100138.47;5056385;28;20043;-77
2023/09/25 04:45:13;;;;;;;18.00;2.83;;;;;;;12.54;100.00;100143.22;5038867;28;20040;-77
2023/09/25 04:47:42;;;;;;;11.93;2.03;;;;;;;12.55;100.00;100144.91;5039190;28;20036;-76
2023/09/25 04:50:10;;;;;;;15.10;2.60;;;;;;;12.47;100.00;100153.19;5039248;28;20422;-77
2023/09/25 04:52:40;;;;;;;17.80;3.85;;;;;;;12.45;100.00;100158.75;5072100;28;20119;-78
2023/09/25 04:55:12;;;;;;;19.75;3.70;;;;;;;12.46;100.00;100154.19;5057877;28;20033;-78
2023/09/25 04:57:39;;;;;;;13.13;2.72;;;;;;;12.37;100.00;100160.81;5026704;28;20062;-77
2023/09/25 05:00:25;;;;;;;17.27;2.33;;;;;;;12.23;100.00;100170.72;5075451;28;20537;-77
2023/09/25 05:02:56;;;;;;;13.88;2.80;;;;;;;12.16;100.00;100169.84;5061932;28;20127;-76
2023/09/25 05:05:22;;;;;;;16.83;3.92;;;;;;;12.09;100.00;100167.13;5039282;28;20540;-77
2023/09/25 05:07:49;;;;;;;20.42;3.13;;;;;;;12.01;100.00;100175.38;5042384;28;20036;-77
2023/09/25 05:10:17;;;;;;;22.80;3.25;;;;;;;11.92;100.00;100173.88;5025920;28;20034;-77
2023/09/25 05:12:45;;;;;;;16.08;2.88;;;;;;;11.87;100.00;100177.16;5058619;28;20032;-77
2023/09/25 05:15:12;;;;;;;16.02;3.28;;;;;;;11.88;100.00;100182.38;5074954;28;20041;-77
2023/09/25 05:17:38;;;;;;;13.73;2.38;;;;;;;11.83;100.00;100184.78;5058622;28;20033;-77
2023/09/25 05:20:15;;;;;;;17.25;2.65;;;;;;;11.78;100.00;100187.25;5042177;28;20063;-77
2023/09/25 05:22:52;;;;;;;16.38;2.70;;;;;;;11.76;100.00;100188.47;5042760;28;20037;-77
2023/09/25 05:25:18;;;;;;;21.00;3.35;;;;;;;11.80;100.00;100195.09;5042275;28;20448;-78
2023/09/25 05:27:52;;;;;;;19.70;3.10;;;;;;;11.81;100.00;100194.94;5058349;28;20035;-77
2023/09/25 05:30:20;;;;;;;31.13;3.33;;;;;;;11.82;100.00;100188.50;5058513;28;20104;-79
2023/09/25 05:32:50;;;;;;;15.23;2.70;;;;;;;11.83;100.00;100202.81;5058783;28;20039;-77
2023/09/25 05:35:16;;;;;;;19.17;3.42;;;;;;;11.88;100.00;100203.06;5058218;28;20090;-77
2023/09/25 05:37:43;;;;;;;22.75;2.65;;;;;;;11.99;100.00;100205.22;5042104;28;20090;-77
2023/09/25 05:40:12;;;;;;;15.07;3.70;;;;;;;12.04;100.00;100212.69;5041987;28;20033;-77
2023/09/25 05:42:46;;;;;;;20.70;3.58;;;;;;;11.96;100.00;100213.72;5042308;28;20086;-78
2023/09/25 05:45:12;;;;;;;20.15;2.95;;;;;;;11.93;100.00;100219.47;5041653;28;20376;-77
2023/09/25 05:47:38;;;;;;;17.85;2.88;;;;;;;11.95;100.00;100224.66;5041963;28;20058;-77
2023/09/25 05:50:06;;;;;;;16.70;3.05;;;;;;;11.99;100.00;100225.97;5058320;28;20368;-77
2023/09/25 05:52:34;;;;;;;18.88;3.35;;;;;;;11.96;100.00;100227.19;5074721;28;20029;-77
2023/09/25 05:55:00;;;;;;;17.15;2.53;;;;;;;11.84;100.00;100234.09;5058142;28;20115;-77
2023/09/25 05:57:26;;;;;;;14.05;2.42;;;;;;;11.63;100.00;100222.34;5057953;28;20103;-78
2023/09/25 05:59:54;;;;;;;19.75;4.55;;;;;;;11.63;100.00;100233.13;5041402;28;20509;-77
2023/09/25 06:02:22;;;;;;;13.80;2.22;;;;;;;11.58;100.00;100238.25;5042042;28;20071;-78
2023/09/25 06:04:48;;;;;;;18.67;2.42;;;;;;;11.51;100.00;100240.09;5058087;28;20119;-77
2023/09/25 06:07:14;;;;;;;15.95;3.22;;;;;;;11.51;100.00;100247.31;5073643;28;20040;-76
2023/09/25 06:09:39;;;;;;;19.45;3.13;;;;;;;11.57;100.00;100233.91;5074286;28;20078;-77
2023/09/25 06:12:05;;;;;;;21.45;4.00;;;;;;;11.58;100.00;100250.91;5041267;28;20040;-77
2023/09/25 06:14:34;;;;;;;14.95;2.53;;;;;;;11.59;100.00;100252.53;5074216;28;20079;-76
2023/09/25 06:16:59;;;;;;;17.65;2.90;;;;;;;11.66;100.00;100256.13;5040630;28;20032;-77
2023/09/25 06:19:26;;;;;;;22.00;2.92;;;;;;;11.66;100.00;100264.22;5041216;28;20095;-77
2023/09/25 06:21:55;;;;;;;16.90;2.75;;;;;;;11.66;100.00;100266.91;5024617;28;20028;-76
2023/09/25 06:24:21;;;;;;;17.35;2.53;;;;;;;11.56;100.00;100264.53;5073820;28;20078;-76
2023/09/25 06:26:48;;;;;;;11.13;2.33;;;;;;;11.54;100.00;100272.00;5057816;28;20062;-77
2023/09/25 06:29:14;;;;;;;15.88;2.30;;;;;;;11.56;100.00;100267.22;5040999;28;20353;-77
2023/09/25 06:31:41;;;;;;;15.63;3.53;;;;;;;11.56;100.00;100275.31;5057117;28;20048;-77
2023/09/25 06:34:07;;;;;;;20.38;3.22;;;;;;;11.64;100.00;100282.41;5040871;28;20185;-78
2023/09/25 06:36:36;;;;;;;16.20;2.97;;;;;;;11.74;100.00;100285.63;5040558;28;20182;-77
2023/09/25 06:39:06;;;;;;;14.75;3.00;;;;;;;11.85;100.00;100286.94;5040870;28;20048;-77
2023/09/25 06:41:34;;;;;;;17.20;3.03;;;;;;;11.85;100.00;100301.28;5073156;28;20078;-76
2023/09/25 06:43:59;;;;;;;15.40;2.95;;;;;;;11.84;100.00;100306.84;5057583;28;20037;-76
2023/09/25 06:46:25;;;;;;;12.68;2.90;;;;;;;11.90;100.00;100310.63;5073784;28;20029;-76
2023/09/25 06:48:51;;;;;;;13.15;2.65;;;;;;;11.85;100.00;100306.66;5040752;28;20040;-77
2023/09/25 06:51:20;;;;;;;15.32;3.53;;;;;;;11.88;100.00;100314.38;5057039;28;20041;-77
2023/09/25 06:53:45;;;;;;;18.35;3.30;;;;;;;11.93;100.00;100324.53;5039441;28;20565;-77
2023/09/25 06:56:11;;;;;;;10.90;2.30;;;;;;;11.99;100.00;100326.47;5055391;28;20143;-76
2023/09/25 06:58:40;;;;;;;20.50;2.97;;;;;;;12.00;100.00;100341.59;5023834;28;20066;-77
2023/09/25 07:01:07;;;;;;;14.60;3.13;;;;;;;12.01;100.00;100332.50;5073599;28;20071;-77
2023/09/25 07:03:32;;;;;;;19.52;3.03;;;;;;;12.05;100.00;100332.94;5056839;28;20067;-77
2023/09/25 07:05:58;;;;;;;16.27;3.17;;;;;;;12.06;100.00;100326.50;5039929;28;20529;-77
2023/09/25 07:08:25;;;;;;;18.77;2.97;;;;;;;12.12;100.00;100349.16;5056546;28;20043;-76
2023/09/25 07:10:52;;;;;;;29.98;3.78;;;;;;;12.19;100.00;100355.44;5057340;28;20036;-76
2023/09/25 07:13:19;;;;;;;22.55;4.22;;;;;;;12.23;100.00;100354.84;5040094;28;20387;-76
2023/09/25 07:15:44;;;;;;;14.60;3.58;;;;;;;12.28;100.00;100360.47;5039846;28;20107;-77
2023/09/25 07:18:11;;;;;;;14.90;2.70;;;;;;;12.39;100.00;100359.09;5040349;28;20043;-78
2023/09/25 07:20:36;;;;;;;13.27;2.83;;;;;;;12.44;100.00;100366.59;5040196;28;20040;-77
2023/09/25 07:23:02;;;;;;;18.85;2.38;;;;;;;12.50;100.00;100360.41;5040222;28;20066;-77
2023/09/25 07:25:33;;;;;;;12.35;2.78;;;;;;;12.60;100.00;100366.28;5056860;28;20090;-77
2023/09/25 07:28:01;;;;;;;18.05;3.30;;;;;;;12.71;100.00;100364.88;5040825;28;20039;-78
2023/09/25 07:30:27;;;;;;;15.02;2.90;;;;;;;12.83;100.00;100367.84;5039996;28;20024;-77
2023/09/25 07:32:52;;;;;;;23.67;3.17;;;;;;;12.90;100.00;100364.16;5073642;28;20032;-77
2023/09/25 07:35:18;;;;;;;12.52;2.50;;;;;;;13.01;100.00;100365.44;5056005;28;20035;-77
2023/09/25 07:37:44;;;;;;;15.18;2.70;;;;;;;13.13;100.00;100371.94;5039308;28;20039;-78
2023/09/25 07:40:13;;;;;;;17.40;3.55;;;;;;;13.31;100.00;100378.66;5056030;28;20028;-78
2023/09/25 07:42:40;;;;;;;17.55;2.80;;;;;;;13.52;100.00;100381.22;5072939;28;20032;-77
2023/09/25 07:45:11;;;;;;;17.00;2.72;;;;;;;13.86;100.00;100390.19;5056051;28;20041;-79
2023/09/25 07:47:40;;;;;;;12.75;2.50;;;;;;;14.36;100.00;100390.63;5056482;28;20132;-78
2023/09/25 07:50:11;;;;;;;13.40;2.95;;;;;;;14.07;100.00;100389.16;5056175;28;20475;-77
2023/09/25 07:52:43;;;;;;;23.35;3.80;;;;;;;14.67;100.00;100394.56;5072607;28;20028;-78
2023/09/25 07:55:11;;;;;;;9.30;2.85;;;;;;;15.16;100.00;100388.59;5055846;28;20039;-79
2023/09/25 07:57:42;;;;;;;9.07;3.03;;;;;;;15.06;100.00;100406.34;5039570;28;20089;-77
2023/09/25 08:02:48;;;;;;;13.73;2.60;;;;;;;14.41;100.00;100412.47;5072603;28;20070;-78
2023/09/25 08:05:14;;;;;;;21.80;3.17;;;;;;;14.65;100.00;100412.88;5038704;28;20485;-78
2023/09/25 08:07:40;;;;;;;14.45;2.85;;;;;;;15.05;100.00;100415.47;5055486;28;20479;-78
2023/09/25 08:10:06;;;;;;;11.90;2.95;;;;;;;15.33;100.00;100431.41;5055611;28;20047;-77
2023/09/25 08:12:32;;;;;;;16.70;3.78;;;;;;;16.02;100.00;100433.34;5039177;28;20040;-78
2023/09/25 08:14:58;;;;;;;16.13;3.67;;;;;;;16.39;100.00;100443.50;5038993;28;20050;-78
2023/09/25 08:17:24;;;;;;;13.48;3.55;;;;;;;16.66;100.00;100444.91;5055684;28;20032;-77
2023/09/25 08:19:52;;;;;;;16.48;3.42;;;;;;;16.87;100.00;100443.69;5038859;28;20028;-78
2023/09/25 08:22:18;;;;;;;11.07;3.35;;;;;;;17.09;100.00;100438.66;5038912;28;20029;-78
2023/09/25 08:24:44;;;;;;;18.33;4.63;;;;;;;17.34;100.00;100445.88;5039152;28;20044;-77
2023/09/25 08:27:10;;;;;;;11.05;2.42;;;;;;;17.48;100.00;100435.66;5038887;28;20383;-77
2023/09/25 08:29:35;;;;;;;12.73;2.80;;;;;;;17.57;100.00;100451.44;5055210;28;20035;-77
2023/09/25 08:32:01;;;;;;;17.83;3.15;;;;;;;17.62;100.00;100448.00;5039179;28;20072;-78
2023/09/25 08:34:27;;;;;;;15.95;3.70;;;;;;;17.74;100.00;100457.06;5055223;28;20498;-77
2023/09/25 08:36:53;;;;;;;20.50;4.40;;;;;;;17.86;100.00;100459.88;5055399;28;20029;-78
2023/09/25 08:39:19;;;;;;;13.13;3.08;;;;;;;18.00;100.00;100449.63;5038995;28;20020;-78
2023/09/25 08:41:45;;;;;;;13.80;4.13;;;;;;;18.15;96.94;100451.88;5038962;28;20055;-78
2023/09/25 08:44:14;;;;;;;9.43;2.40;;;;;;;18.25;95.49;100457.59;5055334;28;20024;-78
2023/09/25 08:46:40;;;;;;;12.75;2.67;;;;;;;18.38;93.00;100462.00;5038972;28;20047;-77
2023/09/25 08:49:06;;;;;;;15.10;3.03;;;;;;;18.32;89.74;100466.47;5038982;28;20468;-78
2023/09/25 08:51:38;;;;;;;11.20;2.75;;;;;;;17.83;92.81;100463.03;5071666;28;20024;-78
2023/09/25 08:54:08;;;;;;;13.52;3.17;;;;;;;18.33;89.91;100479.03;5055855;28;20044;-79
2023/09/25 08:56:34;;;;;;;10.45;2.60;;;;;;;18.33;89.17;100476.28;5038286;28;20098;-78
2023/09/25 08:59:02;;;;;;;12.65;2.92;;;;;;;18.06;90.22;100475.06;5038857;28;20037;-78
2023/09/25 09:01:28;;;;;;;12.43;2.85;;;;;;;18.18;88.51;100487.66;5071834;28;20112;-78
2023/09/25 09:03:54;;;;;;;11.85;3.53;;;;;;;18.17;86.19;100482.41;5038780;28;20305;-78
2023/09/25 09:06:20;;;;;;;10.68;3.75;;;;;;;17.91;88.62;100492.63;5054895;28;20082;-78
2023/09/25 09:08:48;;;;;;;9.43;3.17;;;;;;;17.69;89.86;100486.81;5038692;28;20421;-77
2023/09/25 09:11:14;;;;;;;15.77;3.50;;;;;;;17.89;87.98;100489.31;5055450;28;20045;-77
2023/09/25 09:13:47;;;;;;;16.52;3.33;;;;;;;18.23;86.48;100493.22;5038700;28;20494;-77
2023/09/25 09:16:17;;;;;;;13.82;4.15;;;;;;;18.49;84.19;100504.72;5055023;28;20036;-77
2023/09/25 09:18:43;;;;;;;13.93;3.55;;;;;;;19.05;79.81;100506.13;5038595;28;20114;-77
2023/09/25 09:21:27;;;;;;;12.43;3.50;;;;;;;19.67;76.84;100513.72;5055008;28;20028;-78
2023/09/25 09:23:57;;;;;;;13.63;3.63;;;;;;;19.96;71.43;100519.19;5038569;28;20497;-79
2023/09/25 09:26:24;;;;;;;14.00;3.50;;;;;;;20.00;68.97;100525.81;5054748;28;20545;-78
2023/09/25 09:28:52;;;;;;;14.35;3.28;;;;;;;20.10;69.14;100512.34;5054978;28;20098;-78
2023/09/25 09:31:27;;;;;;;13.80;3.53;;;;;;;20.14;66.60;100521.72;5055305;28;20031;-77
2023/09/25 09:34:07;;;;;;;10.70;3.30;;;;;;;20.37;65.15;100530.84;5054911;28;20032;-80
2023/09/25 09:36:32;;;;;;;12.32;3.13;;;;;;;20.73;63.87;100531.50;5070136;28;20123;-78
2023/09/25 09:38:59;;;;;;;11.40;2.50;;;;;;;21.20;62.19;100537.41;5054962;28;20453;-78
2023/09/25 09:41:25;;;;;;;11.48;3.05;;;;;;;21.41;61.32;100545.94;5038379;28;20075;-75
2023/09/25 09:43:52;;;;;;;8.70;2.78;;;;;;;21.33;61.40;100549.91;5039937;28;20419;-78
2023/09/25 09:46:20;;;;;;;12.10;3.13;;;;;;;21.43;61.23;100546.50;5074022;28;20024;-78
2023/09/25 09:48:47;;;;;;;12.48;3.20;;;;;;;21.38;60.54;100555.47;5073397;28;20544;-76
2023/09/25 09:51:13;;;;;;;11.18;2.75;;;;;;;21.24;59.02;100554.13;5056893;28;20028;-80
2023/09/25 09:53:39;;;;;;;12.23;2.90;;;;;;;21.13;60.05;100546.88;5057999;28;20065;-82
2023/09/25 09:56:04;;;;;;;12.63;3.05;;;;;;;21.08;59.34;100529.28;5073937;28;20104;-78
2023/09/25 09:58:31;;;;;;;14.32;3.80;;;;;;;20.91;60.20;100538.63;5041633;28;20071;-78
2023/09/25 10:01:02;;;;;;;10.35;3.38;;;;;;;20.85;61.57;100548.63;5058456;28;20182;-79
2023/09/25 10:03:31;;;;;;;11.88;2.70;;;;;;;20.92;61.68;100538.34;5058771;28;20064;-78
2023/09/25 10:05:57;;;;;;;14.00;3.90;;;;;;;20.99;61.59;100540.94;5058490;28;20032;-78
2023/09/25 10:08:22;;;;;;;11.73;3.75;;;;;;;20.90;61.30;100548.69;5057968;28;20055;-79
2023/09/25 10:10:51;;;;;;;13.10;4.50;;;;;;;20.99;61.45;100552.69;5056643;28;20085;-80
2023/09/25 10:13:22;;;;;;;11.95;3.53;;;;;;;20.14;63.19;100551.75;5041086;28;20067;-78
2023/09/25 10:15:55;;;;;;;11.60;3.17;;;;;;;20.97;61.50;100548.53;5074617;28;20063;-78
2023/09/25 10:18:21;;;;;;;13.85;3.45;;;;;;;21.16;62.36;100560.84;5041598;28;20048;-78
2023/09/25 10:20:48;;;;;;;16.70;4.47;;;;;;;21.04;61.42;100550.03;5057115;28;20417;-78
2023/09/25 10:23:22;;;;;;;11.93;2.97;;;;;;;21.08;62.43;100551.16;5073977;28;20032;-78
2023/09/25 10:25:52;;;;;;;17.70;4.15;;;;;;;21.06;62.34;100545.16;5041284;28;20025;-78
2023/09/25 10:28:33;;;;;;;15.68;3.80;;;;;;;21.67;61.21;100563.50;5074161;28;20039;-79
2023/09/25 10:31:03;;;;;;;12.13;3.70;;;;;;;22.10;58.43;100559.09;5041023;28;20039;-80
2023/09/25 10:33:36;;;;;;;14.25;3.88;;;;;;;21.95;58.50;100557.81;5057222;28;20551;-79
2023/09/25 10:36:04;;;;;;;16.48;4.38;;;;;;;21.79;57.90;100563.38;5040853;28;20028;-78
2023/09/25 10:38:32;;;;;;;14.93;3.95;;;;;;;21.50;60.17;100564.38;5057830;28;20078;-78
2023/09/25 10:41:08;;;;;;;15.85;4.50;;;;;;;21.40;59.28;100568.88;5074024;28;20479;-78
2023/09/25 10:43:35;;;;;;;15.55;3.83;;;;;;;21.30;60.98;100575.00;5041260;28;20036;-78
2023/09/25 10:46:02;;;;;;;12.60;3.90;;;;;;;21.07;60.93;100578.78;5073602;28;20021;-78
2023/09/25 10:48:28;;;;;;;12.63;4.00;;;;;;;20.91;61.14;100571.41;5073779;28;20029;-78
2023/09/25 10:50:54;;;;;;;17.50;4.15;;;;;;;20.77;62.34;100577.22;5040438;28;20036;-78
2023/09/25 10:53:23;;;;;;;15.65;3.88;;;;;;;20.87;61.90;100576.53;5040327;28;20024;-79
2023/09/25 10:55:49;;;;;;;15.07;3.65;;;;;;;20.97;61.98;100573.97;5041037;28;20119;-79
2023/09/25 10:58:15;;;;;;;18.50;4.07;;;;;;;20.84;60.58;100568.84;5057170;28;20119;-78
2023/09/25 11:00:42;;;;;;;12.02;3.25;;;;;;;20.98;61.00;100559.22;5057288;28;20041;-78
2023/09/25 11:03:08;;;;;;;13.75;3.95;;;;;;;20.42;63.13;100560.97;5040411;28;20032;-78
2023/09/25 11:05:36;;;;;;;10.73;3.03;;;;;;;20.84;61.33;100568.84;5056792;28;20102;-78
2023/09/25 11:08:04;;;;;;;9.13;2.38;;;;;;;;;;5040515;28;20064;-79
2023/09/25 11:10:30;;;;;;;16.10;4.03;;;;;;;;;;5057092;28;20033;-79
2023/09/25 11:12:57;;;;;;;14.07;3.85;;;;;;;21.18;58.57;100561.44;5073165;28;20041;-79
2023/09/25 11:15:25;;;;;;;13.43;3.88;;;;;;;21.21;58.14;100560.09;5073013;28;20041;-79
2023/09/25 11:17:50;;;;;;;15.48;3.67;;;;;;;;;;5040544;28;20045;-80
2023/09/25 11:20:19;;;;;;;15.48;4.18;;;;;;;21.19;58.29;100554.06;5040271;28;20037;-79